createdAt,value
2023-04-27T08:29:47.980Z,101063.13
2023-04-27T08:31:50.863Z,101063.13
2023-04-27T08:33:53.979Z,101071.47
2023-04-27T08:35:56.432Z,101065.31
2023-04-27T08:37:59.082Z,101066.53
2023-04-27T08:40:01.391Z,101055.91
2023-04-27T08:42:14.012Z,101050.31
2023-04-27T08:44:16.931Z,101047.56
2023-04-27T08:46:27.028Z,101054.78
2023-04-27T08:48:29.768Z,101055.44
2023-04-27T08:50:32.608Z,101050.37
2023-04-27T08:52:34.958Z,101046.19
2023-04-27T08:54:37.246Z,101056.63
2023-04-27T08:56:39.758Z,101054.88
2023-04-27T08:58:42.089Z,101050.47
2023-04-27T09:00:45.927Z,101051.41
2023-04-27T09:02:49.355Z,101041.66
2023-04-27T09:04:52.192Z,101038.03
2023-04-27T09:06:54.575Z,101035.59
2023-04-27T09:08:57.188Z,101043.75
2023-04-27T09:10:59.589Z,101034.88
2023-04-27T09:13:01.977Z,101040.59
2023-04-27T09:15:06.311Z,101037.16
2023-04-27T09:17:09.398Z,101032.59
2023-04-27T09:19:12.217Z,101023.66
2023-04-27T09:21:29.490Z,101023.34
2023-04-27T09:23:34.656Z,101021.47
2023-04-27T09:25:36.910Z,101021.47
2023-04-27T09:27:40.239Z,101018.94
2023-04-27T09:29:42.682Z,101020.09
2023-04-27T09:31:45.021Z,101021.16
2023-04-27T09:33:55.955Z,101004.19
2023-04-27T09:36:03.306Z,101017.00
2023-04-27T09:38:06.181Z,101015.78
2023-04-27T09:40:09.878Z,101007.22
2023-04-27T09:42:13.205Z,101013.19
2023-04-27T09:44:16.391Z,101018.56
2023-04-27T09:46:19.858Z,101014.50
2023-04-27T09:48:23.635Z,101013.41
2023-04-27T09:50:25.925Z,101009.75
2023-04-27T09:52:28.535Z,101012.66
2023-04-27T09:54:34.282Z,101007.84
2023-04-27T09:57:16.015Z,101003.75
2023-04-27T09:59:46.822Z,101010.28
2023-04-27T10:02:07.333Z,100997.66
2023-04-27T10:04:25.295Z,100997.16
2023-04-27T10:06:59.139Z,101002.16
2023-04-27T10:09:06.282Z,101001.97
2023-04-27T10:11:16.404Z,100995.22
2023-04-27T10:13:24.138Z,100999.34
2023-04-27T10:15:30.541Z,101001.84
2023-04-27T10:17:36.468Z,100999.22
2023-04-27T10:19:38.863Z,101000.09
2023-04-27T10:22:02.678Z,101005.94
2023-04-27T10:24:09.172Z,101002.31
2023-04-27T10:26:11.728Z,100989.66
2023-04-27T10:28:18.304Z,100986.06
2023-04-27T10:30:26.140Z,100990.69
2023-04-27T10:32:29.351Z,100996.16
2023-04-27T10:34:35.026Z,100981.38
2023-04-27T10:36:39.107Z,100983.50
2023-04-27T10:38:42.056Z,100988.25
2023-04-27T10:40:46.657Z,100990.06
2023-04-27T10:42:49.749Z,100982.16
2023-04-27T10:44:56.968Z,100982.22
2023-04-27T10:47:13.270Z,100978.50
2023-04-27T10:49:16.807Z,100989.00
2023-04-27T10:51:19.204Z,100993.88
2023-04-27T10:53:21.587Z,100996.72
2023-04-27T10:55:24.295Z,100996.78
2023-04-27T10:57:26.801Z,101000.50
2023-04-27T10:59:29.164Z,101000.97
2023-04-27T11:01:32.191Z,100997.72
2023-04-27T11:03:34.630Z,100995.59
2023-04-27T11:05:37.374Z,101000.19
2023-04-27T11:07:39.952Z,101000.75
2023-04-27T11:09:42.624Z,100992.09
2023-04-27T11:11:46.146Z,100982.75
2023-04-27T11:13:50.069Z,100981.97
2023-04-27T11:15:59.818Z,100990.78
2023-04-27T11:18:06.420Z,100974.50
2023-04-27T11:20:09.788Z,100987.03
2023-04-27T11:22:12.218Z,100983.94
2023-04-27T11:24:15.613Z,101000.06
2023-04-27T11:26:26.126Z,101017.16
2023-04-27T11:28:28.388Z,101030.66
2023-04-27T11:30:31.633Z,101032.00
2023-04-27T11:32:34.283Z,101021.31
2023-04-27T11:34:38.925Z,101019.69
2023-04-27T11:36:41.656Z,101015.34
2023-04-27T11:38:44.353Z,101002.09
2023-04-27T11:40:47.565Z,100989.63
2023-04-27T11:42:58.183Z,100985.06
2023-04-27T11:45:01.223Z,100986.31
2023-04-27T11:47:04.115Z,100994.06
2023-04-27T11:49:08.960Z,100996.50
2023-04-27T11:51:14.754Z,101020.69
2023-04-27T11:53:18.868Z,101029.41
2023-04-27T11:55:22.393Z,101016.37
2023-04-27T11:57:29.806Z,101009.34
2023-04-27T11:59:32.199Z,101003.03
2023-04-27T12:01:38.105Z,100988.91
2023-04-27T12:03:41.780Z,100988.44
2023-04-27T12:05:51.523Z,100978.09
2023-04-27T12:07:54.168Z,100963.56
2023-04-27T12:09:57.993Z,100956.47
2023-04-27T12:12:02.789Z,100931.91
2023-04-27T12:14:05.062Z,100931.91
2023-04-27T12:16:07.831Z,100939.75
2023-04-27T12:18:11.052Z,100950.62
2023-04-27T12:20:14.673Z,100940.69
2023-04-27T12:22:17.323Z,100940.66
2023-04-27T12:24:20.197Z,100926.78
2023-04-27T12:26:22.561Z,100931.59
2023-04-27T12:28:25.200Z,100930.38
2023-04-27T12:30:27.585Z,100938.63
2023-04-27T12:32:29.972Z,100940.59
2023-04-27T12:34:32.834Z,100947.72
2023-04-27T12:36:35.166Z,100944.78
2023-04-27T12:38:37.609Z,100962.56
2023-04-27T12:40:40.511Z,100982.59
2023-04-27T12:42:42.955Z,100965.38
2023-04-27T12:44:45.422Z,100962.91
2023-04-27T12:46:48.590Z,100944.78
2023-04-27T12:48:51.219Z,100953.22
2023-04-27T12:50:53.565Z,100948.16
2023-04-27T12:52:56.165Z,100964.34
2023-04-27T12:54:59.383Z,100967.03
2023-04-27T12:57:04.140Z,100960.88
2023-04-27T12:59:06.862Z,100946.00
2023-04-27T13:01:14.801Z,100956.69
2023-04-27T13:03:17.370Z,100957.50
2023-04-27T13:05:21.075Z,100932.69
2023-04-27T13:07:23.409Z,100929.66
2023-04-27T13:09:25.672Z,100927.53
2023-04-27T13:11:28.323Z,100931.63
2023-04-27T13:13:31.852Z,100935.16
2023-04-27T13:15:34.169Z,100925.56
2023-04-27T13:17:37.099Z,100925.25
2023-04-27T13:19:39.621Z,100924.56
2023-04-27T13:21:42.019Z,100932.28
2023-04-27T13:23:44.759Z,100919.00
2023-04-27T13:25:47.038Z,100912.31
2023-04-27T13:27:50.249Z,100914.25
2023-04-27T13:29:52.830Z,100917.25
2023-04-27T13:31:56.079Z,100912.56
2023-04-27T13:33:58.825Z,100920.75
2023-04-27T13:36:02.470Z,100932.41
2023-04-27T13:38:04.784Z,100931.38
2023-04-27T13:40:10.870Z,100921.56
2023-04-27T13:42:13.493Z,100915.81
2023-04-27T13:44:16.375Z,100915.81
2023-04-27T13:46:19.035Z,100912.06
2023-04-27T13:48:22.509Z,100906.66
2023-04-27T13:50:25.060Z,100909.84
2023-04-27T13:52:27.358Z,100920.84
2023-04-27T13:54:30.091Z,100921.94
2023-04-27T13:56:32.347Z,100917.22
2023-04-27T13:58:34.785Z,100912.25
2023-04-27T14:00:37.894Z,100899.88
2023-04-27T14:02:41.962Z,100894.94
2023-04-27T14:04:44.550Z,100890.09
2023-04-27T14:06:46.961Z,100886.25
2023-04-27T14:08:49.583Z,100897.97
2023-04-27T14:10:51.885Z,100899.06
2023-04-27T14:12:54.255Z,100897.97
2023-04-27T14:14:58.385Z,100901.97
2023-04-27T14:17:01.156Z,100915.22
2023-04-27T14:19:03.588Z,100910.06
2023-04-27T14:21:06.287Z,100900.38
2023-04-27T14:23:11.753Z,100910.75
2023-04-27T14:25:14.206Z,100918.06
2023-04-27T14:27:17.200Z,100917.03
2023-04-27T14:29:19.735Z,100917.94
2023-04-27T14:31:22.344Z,100914.41
2023-04-27T14:33:25.447Z,100903.81
2023-04-27T14:35:28.432Z,100919.03
2023-04-27T14:37:30.833Z,100915.34
2023-04-27T14:39:33.957Z,100917.78
2023-04-27T14:41:37.502Z,100909.81
2023-04-27T14:43:39.801Z,100908.78
2023-04-27T14:45:52.458Z,100924.34
2023-04-27T14:47:56.470Z,100917.84
2023-04-27T14:49:59.002Z,100924.59
2023-04-27T14:52:04.568Z,100937.22
2023-04-27T14:54:08.009Z,100923.50
2023-04-27T14:56:11.622Z,100923.38
2023-04-27T14:58:14.348Z,100930.94
2023-04-27T15:00:17.568Z,100923.75
2023-04-27T15:02:21.298Z,100931.66
2023-04-27T15:04:23.964Z,100933.97
2023-04-27T15:06:28.634Z,100922.63
2023-04-27T15:08:34.026Z,100923.00
2023-04-27T15:10:37.168Z,100911.69
2023-04-27T15:12:39.438Z,100913.97
2023-04-27T15:14:41.735Z,100901.56
2023-04-27T15:16:44.468Z,100902.59
2023-04-27T15:18:47.212Z,100895.72
2023-04-27T15:20:53.656Z,100895.50
2023-04-27T15:22:56.255Z,100889.41
2023-04-27T15:24:58.624Z,100892.44
2023-04-27T15:27:01.631Z,100885.69
2023-04-27T15:29:04.599Z,100885.47
2023-04-27T15:31:06.906Z,100899.94
2023-04-27T15:33:10.416Z,100892.56
2023-04-27T15:35:13.207Z,100888.59
2023-04-27T15:37:16.023Z,100894.41
2023-04-27T15:39:18.320Z,100906.66
2023-04-27T15:41:20.993Z,100905.66
2023-04-27T15:43:23.400Z,100898.91
2023-04-27T15:45:27.481Z,100897.19
2023-04-27T15:47:30.115Z,100891.13
2023-04-27T15:49:39.861Z,100889.41
2023-04-27T15:51:49.156Z,100897.59
2023-04-27T15:53:51.826Z,100893.38
2023-04-27T15:55:54.149Z,100879.47
2023-04-27T15:57:56.502Z,100885.72
2023-04-27T15:59:59.217Z,100887.06
2023-04-27T16:02:01.597Z,100875.84
2023-04-27T16:04:04.688Z,100884.37
2023-04-27T16:06:07.563Z,100892.47
2023-04-27T16:08:10.013Z,100889.03
2023-04-27T16:10:13.480Z,100901.09
2023-04-27T16:12:15.892Z,100886.72
2023-04-27T16:14:18.171Z,100886.22
2023-04-27T16:16:20.873Z,100892.25
2023-04-27T16:18:23.566Z,100901.09
2023-04-27T16:20:28.915Z,100896.75
2023-04-27T16:22:31.887Z,100901.09
2023-04-27T16:24:34.197Z,100896.66
2023-04-27T16:26:36.693Z,100903.03
2023-04-27T16:28:39.385Z,100897.41
2023-04-27T16:30:41.667Z,100895.56
2023-04-27T16:32:44.017Z,100895.38
2023-04-27T16:34:46.971Z,100894.13
2023-04-27T16:36:49.917Z,100898.09
2023-04-27T16:38:52.289Z,100901.94
2023-04-27T16:40:56.174Z,100902.84
2023-04-27T16:42:58.472Z,100904.38
2023-04-27T16:45:02.276Z,100901.78
2023-04-27T16:47:04.856Z,100891.59
2023-04-27T16:49:07.507Z,100895.66
2023-04-27T16:51:12.587Z,100899.03
2023-04-27T16:53:19.665Z,100895.31
2023-04-27T16:55:22.029Z,100900.66
2023-04-27T16:57:24.392Z,100899.75
2023-04-27T16:59:26.905Z,100897.13
2023-04-27T17:01:30.135Z,100898.28
2023-04-27T17:03:34.595Z,100904.13
2023-04-27T17:05:37.316Z,100902.25
2023-04-27T17:07:39.640Z,100901.75
2023-04-27T17:09:42.089Z,100900.47
2023-04-27T17:11:44.743Z,100899.62
2023-04-27T17:13:49.534Z,100903.34
2023-04-27T17:15:51.992Z,100905.38
2023-04-27T17:17:55.048Z,100900.28
2023-04-27T17:19:57.797Z,100907.47
2023-04-27T17:22:00.136Z,100908.56
2023-04-27T17:24:03.228Z,100912.63
2023-04-27T17:26:07.821Z,100908.78
2023-04-27T17:28:10.825Z,100905.94
2023-04-27T17:30:13.790Z,100911.25
2023-04-27T17:32:16.276Z,100902.19
2023-04-27T17:34:18.895Z,100903.03
2023-04-27T17:36:21.746Z,100908.44
2023-04-27T17:38:24.237Z,100910.12
2023-04-27T17:40:26.591Z,100920.00
2023-04-27T17:42:29.510Z,100912.84
2023-04-27T17:44:31.942Z,100923.50
2023-04-27T17:46:34.750Z,100913.62
2023-04-27T17:48:38.021Z,100914.50
2023-04-27T17:50:41.278Z,100914.50
2023-04-27T17:52:44.141Z,100920.72
2023-04-27T17:54:47.324Z,100922.00
2023-04-27T17:56:49.854Z,100926.28
2023-04-27T17:58:52.162Z,100922.53
2023-04-27T18:00:55.091Z,100930.84
2023-04-27T18:02:57.885Z,100926.53
2023-04-27T18:05:00.796Z,100931.44
2023-04-27T18:07:03.547Z,100931.63
2023-04-27T18:09:07.133Z,100934.84
2023-04-27T18:11:09.857Z,100934.53
2023-04-27T18:13:13.069Z,100933.16
2023-04-27T18:15:16.116Z,100942.78
2023-04-27T18:17:18.964Z,100940.41
2023-04-27T18:19:21.880Z,100938.16
2023-04-27T18:21:26.738Z,100935.16
2023-04-27T18:23:29.324Z,100934.59
2023-04-27T18:25:32.421Z,100938.41
2023-04-27T18:27:37.881Z,100939.22
2023-04-27T18:29:40.742Z,100944.47
2023-04-27T18:31:43.110Z,100937.63
2023-04-27T18:33:46.558Z,100940.25
2023-04-27T18:35:49.342Z,100942.47
2023-04-27T18:37:53.316Z,100946.47
2023-04-27T18:39:56.178Z,100951.84
2023-04-27T18:41:59.407Z,100957.16
2023-04-27T18:44:06.264Z,100959.63
2023-04-27T18:46:09.172Z,100950.31
2023-04-27T18:48:11.571Z,100956.22
2023-04-27T18:50:17.073Z,100956.31
2023-04-27T18:52:19.938Z,100955.75
2023-04-27T18:54:22.812Z,100962.78
2023-04-27T18:56:26.011Z,100953.00
2023-04-27T18:58:29.114Z,100956.25
2023-04-27T19:00:35.635Z,100962.25
2023-04-27T19:02:39.517Z,100967.31
2023-04-27T19:04:49.042Z,100960.44
2023-04-27T19:07:00.057Z,100955.44
2023-04-27T19:09:02.589Z,100968.47
2023-04-27T19:11:05.899Z,100969.13
2023-04-27T19:13:10.068Z,100967.88
2023-04-27T19:15:14.383Z,100966.97
2023-04-27T19:17:19.344Z,100964.84
2023-04-27T19:19:22.305Z,100967.69
2023-04-27T19:21:25.157Z,100964.72
2023-04-27T19:23:27.856Z,100970.00
2023-04-27T19:25:30.262Z,100969.91
2023-04-27T19:27:32.623Z,100971.56
2023-04-27T19:29:50.465Z,100972.37
2023-04-27T19:31:54.062Z,100970.38
2023-04-27T19:36:06.430Z,100981.91
2023-04-27T19:38:10.188Z,100980.63
2023-04-27T19:40:13.682Z,100984.03
2023-04-27T19:42:16.845Z,100977.16
2023-04-27T19:44:20.104Z,100982.59
2023-04-27T19:46:22.714Z,100980.56
2023-04-27T19:48:26.323Z,100978.34
2023-04-27T19:50:29.272Z,100969.50
2023-04-27T19:52:31.812Z,100967.69
2023-04-27T19:54:38.147Z,100976.37
2023-04-27T19:56:41.251Z,100968.75
2023-04-27T19:58:44.031Z,100966.63
2023-04-27T20:00:47.113Z,100978.38
2023-04-27T20:02:53.644Z,100975.38
2023-04-27T20:04:56.776Z,100970.28
2023-04-27T20:06:59.295Z,100974.53
2023-04-27T20:09:02.206Z,100964.66
2023-04-27T20:11:04.501Z,100972.78
2023-04-27T20:13:07.300Z,100968.72
2023-04-27T20:15:10.266Z,100972.69
2023-04-27T20:17:12.758Z,100971.75
2023-04-27T20:19:17.907Z,100970.41
2023-04-27T20:21:21.564Z,100969.56
2023-04-27T20:23:23.902Z,100967.84
2023-04-27T20:25:26.320Z,100966.59
2023-04-27T20:27:28.892Z,100964.28
2023-04-27T20:29:31.667Z,100963.91
2023-04-27T20:31:34.538Z,100951.00
2023-04-27T20:33:37.128Z,100951.78
2023-04-27T20:35:40.223Z,100945.72
2023-04-27T20:37:43.704Z,100949.50
2023-04-27T20:39:46.392Z,100943.50
2023-04-27T20:41:49.121Z,100953.16
2023-04-27T20:43:52.502Z,100957.53
2023-04-27T20:45:55.244Z,100948.87
2023-04-27T20:47:58.238Z,100955.13
2023-04-27T20:50:01.105Z,100953.94
2023-04-27T20:52:03.688Z,100955.78
2023-04-27T20:54:06.546Z,100964.53
2023-04-27T20:56:09.177Z,100978.25
2023-04-27T20:58:11.793Z,100980.13
2023-04-27T21:00:15.473Z,100974.91
2023-04-27T21:02:17.832Z,100978.97
2023-04-27T21:04:20.963Z,100982.06
2023-04-27T21:06:23.574Z,100979.75
2023-04-27T21:08:26.122Z,100980.69
2023-04-27T21:10:28.806Z,100986.78
2023-04-27T21:12:31.461Z,100980.50
2023-04-27T21:14:34.612Z,100985.44
2023-04-27T21:16:37.214Z,100986.72
2023-04-27T21:18:39.987Z,100976.13
2023-04-27T21:20:42.339Z,100971.19
2023-04-27T21:22:44.920Z,100966.72
2023-04-27T21:24:47.206Z,100966.66
2023-04-27T21:26:49.587Z,100973.16
2023-04-27T21:28:52.207Z,100978.50
2023-04-27T21:30:54.492Z,100974.09
2023-04-27T21:32:56.948Z,100970.88
2023-04-27T21:34:59.603Z,100971.41
2023-04-27T21:37:01.921Z,100967.34
2023-04-27T21:39:04.329Z,100971.53
2023-04-27T21:41:06.870Z,100972.28
2023-04-27T21:43:09.260Z,100972.16
2023-04-27T21:45:11.684Z,100980.09
2023-04-27T21:47:14.363Z,100978.66
2023-04-27T21:49:16.690Z,100971.41
2023-04-27T21:51:19.077Z,100969.25
2023-04-27T21:53:22.640Z,100970.88
2023-04-27T21:55:24.974Z,100976.56
2023-04-27T21:57:27.371Z,100968.34
2023-04-27T21:59:30.140Z,100969.25
2023-04-27T22:01:33.238Z,100967.59
2023-04-27T22:03:37.125Z,100978.22
2023-04-27T22:05:39.996Z,100986.00
2023-04-27T22:07:42.505Z,100980.91
2023-04-27T22:09:45.230Z,100971.28
2023-04-27T22:11:47.478Z,100978.16
2023-04-27T22:13:49.769Z,100980.59
2023-04-27T22:15:52.696Z,100981.06
2023-04-27T22:17:55.901Z,100975.91
2023-04-27T22:19:58.574Z,100989.75
2023-04-27T22:22:01.127Z,100975.75
2023-04-27T22:24:03.614Z,100979.31
2023-04-27T22:26:07.698Z,100988.66
